KBJJ/BJJ METAR and TAF weather

Enter ICAO airport designator
Station Type Date Time Source
KBJJ METAR 2022/11/30 10:56 UTC NOAA

KBJJ 301056Z AUTO 22008KT 5SM RA BR BKN005 BKN011 OVC018 10/09 A2959 RMK AO2 RAE00B36 CIG 004V008 SLP024 P0003 T01000094


Station Type Date Time Source
KBJJ Decoded METAR 2022/11/30 10:56 UTC NOAA

WOOSTER WAYNE COUNTY AIRPORT, OH, United States (KBJJ) 40-52N 81-53W 343M
Nov 30, 2022 - 05:56 AM EST / 2022.11.30 1056 UTC
Wind: from the SW (220 degrees) at 9 MPH (8 KT):0
Visibility: 5 mile(s):0
Sky conditions: overcast
Weather: rain; mist
Precipitation last hour: 0.03 inches
Temperature: 50.0 F (10.0 C)
Dew Point: 48.9 F (9.4 C)
Relative Humidity: 96%
Pressure (altimeter): 29.59 in. Hg (1002 hPa)
ob: KBJJ 301056Z AUTO 22008KT 5SM RA BR BKN005 BKN011 OVC018 10/09 A2959 RMK AO2 RAE00B36 CIG 004V008 SLP024 P0003 T01000094
cycle: 11

Station Type Date Time Source
KBJJ TAF UTC NOAA

Error!

Example: see airport list